sensor_id;sensor_type;location;lat;lon;timestamp;temperature;humidity
33011;DHT22;19370;48.562;9.196;2022-08-06T00:01:55;21.00;99.90
33011;DHT22;19370;48.562;9.196;2022-08-06T00:04:21;21.10;99.90
33011;DHT22;19370;48.562;9.196;2022-08-06T00:06:47;21.30;99.90
33011;DHT22;19370;48.562;9.196;2022-08-06T00:09:12;21.30;99.90
33011;DHT22;19370;48.562;9.196;2022-08-06T00:11:39;21.10;99.80
33011;DHT22;19370;48.562;9.196;2022-08-06T00:14:05;21.00;99.90
33011;DHT22;19370;48.562;9.196;2022-08-06T00:16:31;20.90;99.80
33011;DHT22;19370;48.562;9.196;2022-08-06T00:18:57;20.80;99.90
33011;DHT22;19370;48.562;9.196;2022-08-06T00:21:27;20.70;99.60
33011;DHT22;19370;48.562;9.196;2022-08-06T00:23:52;20.70;99.80
33011;DHT22;19370;48.562;9.196;2022-08-06T00:26:18;20.70;99.60
33011;DHT22;19370;48.562;9.196;2022-08-06T00:28:44;20.70;99.90
33011;DHT22;19370;48.562;9.196;2022-08-06T00:31:10;20.70;99.90
33011;DHT22;19370;48.562;9.196;2022-08-06T00:33:36;20.70;99.50
33011;DHT22;19370;48.562;9.196;2022-08-06T00:36:02;20.60;99.40
33011;DHT22;19370;48.562;9.196;2022-08-06T00:38:27;20.60;99.90
33011;DHT22;19370;48.562;9.196;2022-08-06T00:40:53;20.60;99.80
33011;DHT22;19370;48.562;9.196;2022-08-06T00:43:19;20.60;99.90
33011;DHT22;19370;48.562;9.196;2022-08-06T00:45:45;20.50;99.90
33011;DHT22;19370;48.562;9.196;2022-08-06T00:48:10;20.50;99.90
33011;DHT22;19370;48.562;9.196;2022-08-06T00:50:36;20.40;99.70
33011;DHT22;19370;48.562;9.196;2022-08-06T00:53:03;20.40;99.90
33011;DHT22;19370;48.562;9.196;2022-08-06T00:55:30;20.30;98.80
33011;DHT22;19370;48.562;9.196;2022-08-06T00:57:56;20.20;98.40
33011;DHT22;19370;48.562;9.196;2022-08-06T01:00:21;20.10;98.90
33011;DHT22;19370;48.562;9.196;2022-08-06T01:02:47;20.20;98.00
33011;DHT22;19370;48.562;9.196;2022-08-06T01:05:12;20.10;97.90
33011;DHT22;19370;48.562;9.196;2022-08-06T01:07:38;20.20;98.50
33011;DHT22;19370;48.562;9.196;2022-08-06T01:10:04;20.20;98.00
33011;DHT22;19370;48.562;9.196;2022-08-06T01:12:30;20.30;97.50
33011;DHT22;19370;48.562;9.196;2022-08-06T01:14:55;20.30;97.50
33011;DHT22;19370;48.562;9.196;2022-08-06T01:17:32;20.20;98.10
33011;DHT22;19370;48.562;9.196;2022-08-06T01:20:22;20.30;97.60
33011;DHT22;19370;48.562;9.196;2022-08-06T01:23:17;20.30;97.30
33011;DHT22;19370;48.562;9.196;2022-08-06T01:28:43;20.20;97.10
33011;DHT22;19370;48.562;9.196;2022-08-06T01:31:17;20.20;97.20
33011;DHT22;19370;48.562;9.196;2022-08-06T01:33:50;20.30;97.40
33011;DHT22;19370;48.562;9.196;2022-08-06T01:36:23;20.30;97.70
33011;DHT22;19370;48.562;9.196;2022-08-06T01:38:52;20.30;97.50
33011;DHT22;19370;48.562;9.196;2022-08-06T01:41:22;20.30;98.20
33011;DHT22;19370;48.562;9.196;2022-08-06T01:44:05;20.30;98.70
33011;DHT22;19370;48.562;9.196;2022-08-06T01:46:36;20.20;98.30
33011;DHT22;19370;48.562;9.196;2022-08-06T01:49:03;20.20;98.40
33011;DHT22;19370;48.562;9.196;2022-08-06T01:51:30;20.10;99.90
33011;DHT22;19370;48.562;9.196;2022-08-06T01:53:58;20.00;99.90
33011;DHT22;19370;48.562;9.196;2022-08-06T01:56:25;19.90;99.90
33011;DHT22;19370;48.562;9.196;2022-08-06T01:58:53;19.70;99.90
33011;DHT22;19370;48.562;9.196;2022-08-06T02:01:20;19.70;99.90
33011;DHT22;19370;48.562;9.196;2022-08-06T02:03:51;19.60;99.90
33011;DHT22;19370;48.562;9.196;2022-08-06T02:06:25;19.50;99.90
33011;DHT22;19370;48.562;9.196;2022-08-06T02:08:53;19.50;99.90
33011;DHT22;19370;48.562;9.196;2022-08-06T02:11:20;19.50;99.90
33011;DHT22;19370;48.562;9.196;2022-08-06T02:13:46;19.50;99.90
33011;DHT22;19370;48.562;9.196;2022-08-06T02:16:12;19.60;99.90
33011;DHT22;19370;48.562;9.196;2022-08-06T02:18:42;19.60;99.90
33011;DHT22;19370;48.562;9.196;2022-08-06T02:21:15;19.60;99.90
33011;DHT22;19370;48.562;9.196;2022-08-06T02:23:41;19.60;99.90
33011;DHT22;19370;48.562;9.196;2022-08-06T02:26:09;19.60;99.90
33011;DHT22;19370;48.562;9.196;2022-08-06T02:28:38;19.60;99.90
33011;DHT22;19370;48.562;9.196;2022-08-06T02:31:04;19.60;99.70
33011;DHT22;19370;48.562;9.196;2022-08-06T02:33:30;19.50;99.00
33011;DHT22;19370;48.562;9.196;2022-08-06T02:36:12;19.50;99.80
33011;DHT22;19370;48.562;9.196;2022-08-06T02:41:34;19.50;98.00
33011;DHT22;19370;48.562;9.196;2022-08-06T02:44:42;19.50;98.70
33011;DHT22;19370;48.562;9.196;2022-08-06T02:47:17;19.50;97.50
33011;DHT22;19370;48.562;9.196;2022-08-06T02:49:49;19.50;97.80
33011;DHT22;19370;48.562;9.196;2022-08-06T02:52:18;19.40;97.20
33011;DHT22;19370;48.562;9.196;2022-08-06T02:54:50;19.40;97.70
33011;DHT22;19370;48.562;9.196;2022-08-06T02:57:22;19.30;97.50
33011;DHT22;19370;48.562;9.196;2022-08-06T02:59:52;19.30;98.10
33011;DHT22;19370;48.562;9.196;2022-08-06T03:02:25;19.40;97.40
33011;DHT22;19370;48.562;9.196;2022-08-06T03:04:52;19.40;97.30
33011;DHT22;19370;48.562;9.196;2022-08-06T03:07:19;19.40;97.50
33011;DHT22;19370;48.562;9.196;2022-08-06T03:09:47;19.40;97.10
33011;DHT22;19370;48.562;9.196;2022-08-06T03:12:15;19.50;97.70
33011;DHT22;19370;48.562;9.196;2022-08-06T03:14:42;19.50;97.40
33011;DHT22;19370;48.562;9.196;2022-08-06T03:17:11;19.30;97.50
33011;DHT22;19370;48.562;9.196;2022-08-06T03:19:38;19.30;97.70
33011;DHT22;19370;48.562;9.196;2022-08-06T03:22:08;19.20;97.20
33011;DHT22;19370;48.562;9.196;2022-08-06T03:24:35;19.10;97.50
33011;DHT22;19370;48.562;9.196;2022-08-06T03:27:02;19.20;97.30
33011;DHT22;19370;48.562;9.196;2022-08-06T03:29:28;19.20;97.30
33011;DHT22;19370;48.562;9.196;2022-08-06T03:31:54;19.20;97.60
33011;DHT22;19370;48.562;9.196;2022-08-06T03:34:21;19.20;97.40
33011;DHT22;19370;48.562;9.196;2022-08-06T03:36:47;19.30;97.30
33011;DHT22;19370;48.562;9.196;2022-08-06T03:39:14;19.20;97.10
33011;DHT22;19370;48.562;9.196;2022-08-06T03:41:41;19.30;97.20
33011;DHT22;19370;48.562;9.196;2022-08-06T03:44:08;19.30;97.40
33011;DHT22;19370;48.562;9.196;2022-08-06T03:46:40;19.20;97.20
33011;DHT22;19370;48.562;9.196;2022-08-06T03:49:13;19.20;97.00
33011;DHT22;19370;48.562;9.196;2022-08-06T03:51:40;19.20;98.00
33011;DHT22;19370;48.562;9.196;2022-08-06T03:54:08;19.20;97.80
33011;DHT22;19370;48.562;9.196;2022-08-06T03:56:36;19.20;97.70
33011;DHT22;19370;48.562;9.196;2022-08-06T03:59:04;19.30;97.00
33011;DHT22;19370;48.562;9.196;2022-08-06T04:01:41;19.20;96.90
33011;DHT22;19370;48.562;9.196;2022-08-06T04:04:10;19.20;97.50
33011;DHT22;19370;48.562;9.196;2022-08-06T04:06:36;19.20;97.30
33011;DHT22;19370;48.562;9.196;2022-08-06T04:09:02;19.10;97.50
33011;DHT22;19370;48.562;9.196;2022-08-06T04:11:30;19.10;97.30
33011;DHT22;19370;48.562;9.196;2022-08-06T04:13:58;19.10;97.30
33011;DHT22;19370;48.562;9.196;2022-08-06T04:16:24;19.10;97.40
33011;DHT22;19370;48.562;9.196;2022-08-06T04:18:53;19.00;97.70
33011;DHT22;19370;48.562;9.196;2022-08-06T04:21:23;19.00;97.90
33011;DHT22;19370;48.562;9.196;2022-08-06T04:23:50;19.10;97.70
33011;DHT22;19370;48.562;9.196;2022-08-06T04:26:18;19.10;97.40
33011;DHT22;19370;48.562;9.196;2022-08-06T04:28:52;19.20;98.10
33011;DHT22;19370;48.562;9.196;2022-08-06T04:31:18;19.10;97.30
33011;DHT22;19370;48.562;9.196;2022-08-06T04:33:45;19.10;97.90
33011;DHT22;19370;48.562;9.196;2022-08-06T04:36:11;19.20;97.60
33011;DHT22;19370;48.562;9.196;2022-08-06T04:38:38;19.30;97.40
33011;DHT22;19370;48.562;9.196;2022-08-06T04:41:04;19.20;97.50
33011;DHT22;19370;48.562;9.196;2022-08-06T04:43:31;19.10;97.10
33011;DHT22;19370;48.562;9.196;2022-08-06T04:45:57;19.10;97.60
33011;DHT22;19370;48.562;9.196;2022-08-06T04:48:24;19.10;98.30
33011;DHT22;19370;48.562;9.196;2022-08-06T04:50:51;19.10;97.70
33011;DHT22;19370;48.562;9.196;2022-08-06T04:53:17;19.10;97.90
33011;DHT22;19370;48.562;9.196;2022-08-06T04:55:44;19.20;97.60
33011;DHT22;19370;48.562;9.196;2022-08-06T04:58:12;19.20;97.60
33011;DHT22;19370;48.562;9.196;2022-08-06T05:00:43;19.10;97.60
33011;DHT22;19370;48.562;9.196;2022-08-06T05:03:10;19.10;97.90
33011;DHT22;19370;48.562;9.196;2022-08-06T05:05:39;19.10;97.90
33011;DHT22;19370;48.562;9.196;2022-08-06T05:08:07;19.10;97.90
33011;DHT22;19370;48.562;9.196;2022-08-06T05:10:44;19.20;97.80
33011;DHT22;19370;48.562;9.196;2022-08-06T05:13:13;19.10;97.90
33011;DHT22;19370;48.562;9.196;2022-08-06T05:15:42;19.10;97.60
33011;DHT22;19370;48.562;9.196;2022-08-06T05:18:15;19.10;97.60
33011;DHT22;19370;48.562;9.196;2022-08-06T05:20:48;19.20;98.10
33011;DHT22;19370;48.562;9.196;2022-08-06T05:23:37;19.20;98.30
33011;DHT22;19370;48.562;9.196;2022-08-06T05:26:03;19.00;97.90
33011;DHT22;19370;48.562;9.196;2022-08-06T05:28:30;19.00;98.50
33011;DHT22;19370;48.562;9.196;2022-08-06T05:30:56;19.00;98.40
33011;DHT22;19370;48.562;9.196;2022-08-06T05:33:26;19.00;98.40
33011;DHT22;19370;48.562;9.196;2022-08-06T05:35:52;19.10;98.70
33011;DHT22;19370;48.562;9.196;2022-08-06T05:38:18;19.20;98.60
33011;DHT22;19370;48.562;9.196;2022-08-06T05:40:43;19.20;98.50
33011;DHT22;19370;48.562;9.196;2022-08-06T05:43:09;19.30;98.40
33011;DHT22;19370;48.562;9.196;2022-08-06T05:45:37;19.30;98.60
33011;DHT22;19370;48.562;9.196;2022-08-06T05:48:05;19.30;98.50
33011;DHT22;19370;48.562;9.196;2022-08-06T05:50:32;19.30;98.50
33011;DHT22;19370;48.562;9.196;2022-08-06T05:53:08;19.30;98.60
33011;DHT22;19370;48.562;9.196;2022-08-06T05:55:43;19.30;98.80
33011;DHT22;19370;48.562;9.196;2022-08-06T05:58:14;19.30;98.60
33011;DHT22;19370;48.562;9.196;2022-08-06T06:00:41;19.30;98.90
33011;DHT22;19370;48.562;9.196;2022-08-06T06:03:11;19.20;98.60
33011;DHT22;19370;48.562;9.196;2022-08-06T06:05:37;19.20;98.60
33011;DHT22;19370;48.562;9.196;2022-08-06T06:08:04;19.20;99.00
33011;DHT22;19370;48.562;9.196;2022-08-06T06:10:32;19.20;98.70
33011;DHT22;19370;48.562;9.196;2022-08-06T06:13:01;19.30;99.00
33011;DHT22;19370;48.562;9.196;2022-08-06T06:15:27;19.30;98.90
33011;DHT22;19370;48.562;9.196;2022-08-06T06:18:18;19.30;98.60
33011;DHT22;19370;48.562;9.196;2022-08-06T06:21:11;19.20;98.90
33011;DHT22;19370;48.562;9.196;2022-08-06T06:23:44;19.20;98.80
33011;DHT22;19370;48.562;9.196;2022-08-06T06:26:21;19.40;99.40
33011;DHT22;19370;48.562;9.196;2022-08-06T06:31:42;19.50;98.80
33011;DHT22;19370;48.562;9.196;2022-08-06T06:37:08;19.60;98.80
33011;DHT22;19370;48.562;9.196;2022-08-06T06:42:38;19.50;98.90
33011;DHT22;19370;48.562;9.196;2022-08-06T06:45:19;19.50;98.60
33011;DHT22;19370;48.562;9.196;2022-08-06T06:48:18;19.50;99.10
33011;DHT22;19370;48.562;9.196;2022-08-06T06:50:47;19.50;98.50
33011;DHT22;19370;48.562;9.196;2022-08-06T06:53:15;19.60;98.80
33011;DHT22;19370;48.562;9.196;2022-08-06T06:55:45;19.50;98.50
33011;DHT22;19370;48.562;9.196;2022-08-06T06:58:25;19.50;98.70
33011;DHT22;19370;48.562;9.196;2022-08-06T07:00:54;19.70;98.60
33011;DHT22;19370;48.562;9.196;2022-08-06T07:03:22;19.80;98.60
33011;DHT22;19370;48.562;9.196;2022-08-06T07:05:49;19.80;98.30
33011;DHT22;19370;48.562;9.196;2022-08-06T07:08:20;19.90;98.30
33011;DHT22;19370;48.562;9.196;2022-08-06T07:10:47;19.80;98.30
33011;DHT22;19370;48.562;9.196;2022-08-06T07:13:14;19.70;98.20
33011;DHT22;19370;48.562;9.196;2022-08-06T07:15:42;19.70;98.30
33011;DHT22;19370;48.562;9.196;2022-08-06T07:18:08;19.60;98.90
33011;DHT22;19370;48.562;9.196;2022-08-06T07:20:34;19.50;98.80
33011;DHT22;19370;48.562;9.196;2022-08-06T07:23:03;19.50;98.70
33011;DHT22;19370;48.562;9.196;2022-08-06T07:25:37;19.60;98.40
33011;DHT22;19370;48.562;9.196;2022-08-06T07:28:04;19.60;98.70
33011;DHT22;19370;48.562;9.196;2022-08-06T07:30:31;19.70;98.80
33011;DHT22;19370;48.562;9.196;2022-08-06T07:32:59;19.90;98.90
33011;DHT22;19370;48.562;9.196;2022-08-06T07:35:24;20.00;98.60
33011;DHT22;19370;48.562;9.196;2022-08-06T07:38:01;20.00;98.30
33011;DHT22;19370;48.562;9.196;2022-08-06T07:40:30;20.10;98.90
33011;DHT22;19370;48.562;9.196;2022-08-06T07:43:11;20.20;97.90
33011;DHT22;19370;48.562;9.196;2022-08-06T07:45:37;20.30;98.20
33011;DHT22;19370;48.562;9.196;2022-08-06T07:48:07;20.50;98.20
33011;DHT22;19370;48.562;9.196;2022-08-06T07:50:34;20.50;98.50
33011;DHT22;19370;48.562;9.196;2022-08-06T07:53:00;20.60;97.80
33011;DHT22;19370;48.562;9.196;2022-08-06T07:55:27;20.70;97.90
33011;DHT22;19370;48.562;9.196;2022-08-06T07:57:54;20.70;97.80
33011;DHT22;19370;48.562;9.196;2022-08-06T08:00:21;20.80;97.50
33011;DHT22;19370;48.562;9.196;2022-08-06T08:02:48;20.70;97.40
33011;DHT22;19370;48.562;9.196;2022-08-06T08:05:35;20.80;97.20
33011;DHT22;19370;48.562;9.196;2022-08-06T08:08:20;20.90;97.90
33011;DHT22;19370;48.562;9.196;2022-08-06T08:10:46;20.90;97.70
33011;DHT22;19370;48.562;9.196;2022-08-06T08:13:12;21.10;97.50
33011;DHT22;19370;48.562;9.196;2022-08-06T08:15:38;21.20;97.50
33011;DHT22;19370;48.562;9.196;2022-08-06T08:18:05;21.40;96.80
33011;DHT22;19370;48.562;9.196;2022-08-06T08:20:32;21.60;96.40
33011;DHT22;19370;48.562;9.196;2022-08-06T08:22:58;21.70;95.40
33011;DHT22;19370;48.562;9.196;2022-08-06T08:25:24;21.80;95.70
33011;DHT22;19370;48.562;9.196;2022-08-06T08:27:50;21.90;96.00
33011;DHT22;19370;48.562;9.196;2022-08-06T08:30:17;22.00;95.30
33011;DHT22;19370;48.562;9.196;2022-08-06T08:32:43;22.00;95.00
33011;DHT22;19370;48.562;9.196;2022-08-06T08:35:08;22.10;94.70
33011;DHT22;19370;48.562;9.196;2022-08-06T08:37:34;22.20;94.80
33011;DHT22;19370;48.562;9.196;2022-08-06T08:40:00;22.30;93.60
33011;DHT22;19370;48.562;9.196;2022-08-06T08:42:36;22.40;94.30
33011;DHT22;19370;48.562;9.196;2022-08-06T08:45:02;22.30;93.50
33011;DHT22;19370;48.562;9.196;2022-08-06T08:47:29;22.20;94.40
33011;DHT22;19370;48.562;9.196;2022-08-06T08:49:58;22.00;94.20
33011;DHT22;19370;48.562;9.196;2022-08-06T08:52:28;21.80;93.90
33011;DHT22;19370;48.562;9.196;2022-08-06T08:55:01;21.70;94.20
33011;DHT22;19370;48.562;9.196;2022-08-06T08:57:27;21.50;94.40
33011;DHT22;19370;48.562;9.196;2022-08-06T08:59:54;21.40;94.40
33011;DHT22;19370;48.562;9.196;2022-08-06T09:02:20;21.60;94.80
33011;DHT22;19370;48.562;9.196;2022-08-06T09:04:46;21.90;93.60
33011;DHT22;19370;48.562;9.196;2022-08-06T09:07:12;22.10;94.40
33011;DHT22;19370;48.562;9.196;2022-08-06T09:09:38;22.50;94.10
33011;DHT22;19370;48.562;9.196;2022-08-06T09:12:05;22.60;93.30
33011;DHT22;19370;48.562;9.196;2022-08-06T09:14:31;22.70;93.30
33011;DHT22;19370;48.562;9.196;2022-08-06T09:16:58;23.10;92.70
33011;DHT22;19370;48.562;9.196;2022-08-06T09:19:25;23.20;91.60
33011;DHT22;19370;48.562;9.196;2022-08-06T09:21:58;23.50;91.70
33011;DHT22;19370;48.562;9.196;2022-08-06T09:30:59;24.40;91.00
33011;DHT22;19370;48.562;9.196;2022-08-06T09:33:26;24.20;90.10
33011;DHT22;19370;48.562;9.196;2022-08-06T09:36:06;24.60;90.20
33011;DHT22;19370;48.562;9.196;2022-08-06T09:38:45;24.50;88.80
33011;DHT22;19370;48.562;9.196;2022-08-06T09:41:13;24.70;88.70
33011;DHT22;19370;48.562;9.196;2022-08-06T09:43:39;24.70;87.90
33011;DHT22;19370;48.562;9.196;2022-08-06T09:46:06;24.90;87.70
33011;DHT22;19370;48.562;9.196;2022-08-06T09:48:33;24.80;85.80
33011;DHT22;19370;48.562;9.196;2022-08-06T09:50:59;24.90;85.40
33011;DHT22;19370;48.562;9.196;2022-08-06T09:53:25;24.90;85.00
33011;DHT22;19370;48.562;9.196;2022-08-06T09:55:53;24.90;83.50
33011;DHT22;19370;48.562;9.196;2022-08-06T09:58:34;25.10;84.30
33011;DHT22;19370;48.562;9.196;2022-08-06T10:01:15;25.10;85.50
33011;DHT22;19370;48.562;9.196;2022-08-06T10:03:42;24.70;83.80
33011;DHT22;19370;48.562;9.196;2022-08-06T10:06:15;24.60;84.10
33011;DHT22;19370;48.562;9.196;2022-08-06T10:08:43;24.80;84.40
33011;DHT22;19370;48.562;9.196;2022-08-06T10:11:11;25.00;83.20
33011;DHT22;19370;48.562;9.196;2022-08-06T10:13:37;25.10;83.50
33011;DHT22;19370;48.562;9.196;2022-08-06T10:18:47;24.80;83.10
33011;DHT22;19370;48.562;9.196;2022-08-06T10:21:18;24.60;83.00
33011;DHT22;19370;48.562;9.196;2022-08-06T10:23:50;24.50;84.50
33011;DHT22;19370;48.562;9.196;2022-08-06T10:26:19;24.30;84.80
33011;DHT22;19370;48.562;9.196;2022-08-06T10:28:48;24.50;85.40
33011;DHT22;19370;48.562;9.196;2022-08-06T10:36:36;23.90;94.30
33011;DHT22;19370;48.562;9.196;2022-08-06T10:39:04;23.50;94.60
33011;DHT22;19370;48.562;9.196;2022-08-06T10:41:32;23.20;95.20
33011;DHT22;19370;48.562;9.196;2022-08-06T10:44:01;23.00;96.30
33011;DHT22;19370;48.562;9.196;2022-08-06T10:46:28;22.90;96.40
33011;DHT22;19370;48.562;9.196;2022-08-06T10:48:54;22.90;96.00
33011;DHT22;19370;48.562;9.196;2022-08-06T10:51:21;23.00;96.10
33011;DHT22;19370;48.562;9.196;2022-08-06T10:53:47;22.90;95.70
33011;DHT22;19370;48.562;9.196;2022-08-06T10:56:14;23.00;95.40
33011;DHT22;19370;48.562;9.196;2022-08-06T10:58:41;23.30;96.40
33011;DHT22;19370;48.562;9.196;2022-08-06T11:01:23;23.50;95.00
33011;DHT22;19370;48.562;9.196;2022-08-06T11:03:58;23.80;95.00
33011;DHT22;19370;48.562;9.196;2022-08-06T11:06:36;24.20;94.00
33011;DHT22;19370;48.562;9.196;2022-08-06T11:15:24;24.40;93.30
33011;DHT22;19370;48.562;9.196;2022-08-06T11:18:01;24.30;93.00
33011;DHT22;19370;48.562;9.196;2022-08-06T11:23:22;24.30;93.40
33011;DHT22;19370;48.562;9.196;2022-08-06T11:25:56;24.30;92.90
33011;DHT22;19370;48.562;9.196;2022-08-06T11:30:57;24.80;93.20
33011;DHT22;19370;48.562;9.196;2022-08-06T11:36:06;25.30;91.60
33011;DHT22;19370;48.562;9.196;2022-08-06T11:46:42;26.60;87.60
33011;DHT22;19370;48.562;9.196;2022-08-06T11:49:13;26.50;84.10
33011;DHT22;19370;48.562;9.196;2022-08-06T11:56:35;26.40;71.10
33011;DHT22;19370;48.562;9.196;2022-08-06T11:59:14;27.10;71.50
33011;DHT22;19370;48.562;9.196;2022-08-06T12:01:46;26.70;68.90
33011;DHT22;19370;48.562;9.196;2022-08-06T12:07:27;26.30;67.60
33011;DHT22;19370;48.562;9.196;2022-08-06T12:12:40;26.30;67.50
33011;DHT22;19370;48.562;9.196;2022-08-06T12:20:39;25.70;70.80
33011;DHT22;19370;48.562;9.196;2022-08-06T12:23:13;26.70;70.80
33011;DHT22;19370;48.562;9.196;2022-08-06T12:25:45;27.50;67.10
33011;DHT22;19370;48.562;9.196;2022-08-06T12:28:14;27.60;65.10
33011;DHT22;19370;48.562;9.196;2022-08-06T12:30:58;27.40;64.50
33011;DHT22;19370;48.562;9.196;2022-08-06T12:33:23;27.80;64.90
33011;DHT22;19370;48.562;9.196;2022-08-06T12:35:56;28.20;64.60
33011;DHT22;19370;48.562;9.196;2022-08-06T12:38:23;28.10;60.60
33011;DHT22;19370;48.562;9.196;2022-08-06T12:41:09;28.20;60.30
33011;DHT22;19370;48.562;9.196;2022-08-06T12:43:36;28.20;62.40
33011;DHT22;19370;48.562;9.196;2022-08-06T12:46:04;27.50;61.90
33011;DHT22;19370;48.562;9.196;2022-08-06T12:48:32;27.30;64.60
33011;DHT22;19370;48.562;9.196;2022-08-06T12:51:11;27.00;64.20
33011;DHT22;19370;48.562;9.196;2022-08-06T12:53:49;27.00;65.10
33011;DHT22;19370;48.562;9.196;2022-08-06T12:56:16;27.30;64.10
33011;DHT22;19370;48.562;9.196;2022-08-06T12:58:42;27.10;62.20
33011;DHT22;19370;48.562;9.196;2022-08-06T13:01:12;27.90;62.90
33011;DHT22;19370;48.562;9.196;2022-08-06T13:03:39;28.80;62.70
33011;DHT22;19370;48.562;9.196;2022-08-06T13:06:10;29.30;62.00
33011;DHT22;19370;48.562;9.196;2022-08-06T13:08:37;29.20;59.00
33011;DHT22;19370;48.562;9.196;2022-08-06T13:11:03;28.90;58.50
33011;DHT22;19370;48.562;9.196;2022-08-06T13:13:45;28.30;59.50
33011;DHT22;19370;48.562;9.196;2022-08-06T13:16:13;28.00;62.20
33011;DHT22;19370;48.562;9.196;2022-08-06T13:18:40;28.30;59.60
33011;DHT22;19370;48.562;9.196;2022-08-06T13:21:21;28.80;60.00
33011;DHT22;19370;48.562;9.196;2022-08-06T13:23:49;28.80;58.40
33011;DHT22;19370;48.562;9.196;2022-08-06T13:26:23;28.50;58.50
33011;DHT22;19370;48.562;9.196;2022-08-06T13:29:24;28.20;58.00
33011;DHT22;19370;48.562;9.196;2022-08-06T13:32:06;27.90;58.00
33011;DHT22;19370;48.562;9.196;2022-08-06T13:34:53;28.60;58.40
33011;DHT22;19370;48.562;9.196;2022-08-06T13:37:47;29.20;57.70
33011;DHT22;19370;48.562;9.196;2022-08-06T13:40:17;29.90;55.80
33011;DHT22;19370;48.562;9.196;2022-08-06T13:42:56;30.50;56.60
33011;DHT22;19370;48.562;9.196;2022-08-06T13:45:26;30.50;56.90
33011;DHT22;19370;48.562;9.196;2022-08-06T13:48:04;30.40;57.50
33011;DHT22;19370;48.562;9.196;2022-08-06T13:50:41;30.00;56.80
33011;DHT22;19370;48.562;9.196;2022-08-06T13:53:09;30.20;57.30
33011;DHT22;19370;48.562;9.196;2022-08-06T13:55:36;30.10;56.10
33011;DHT22;19370;48.562;9.196;2022-08-06T13:58:02;30.70;56.00
33011;DHT22;19370;48.562;9.196;2022-08-06T14:00:29;31.30;57.80
33011;DHT22;19370;48.562;9.196;2022-08-06T14:02:55;31.20;67.80
33011;DHT22;19370;48.562;9.196;2022-08-06T14:05:22;30.40;65.10
33011;DHT22;19370;48.562;9.196;2022-08-06T14:07:48;29.60;66.40
33011;DHT22;19370;48.562;9.196;2022-08-06T14:10:14;29.00;68.30
33011;DHT22;19370;48.562;9.196;2022-08-06T14:12:41;28.50;67.50
33011;DHT22;19370;48.562;9.196;2022-08-06T14:15:08;28.30;68.70
33011;DHT22;19370;48.562;9.196;2022-08-06T14:17:33;28.70;68.00
33011;DHT22;19370;48.562;9.196;2022-08-06T14:20:02;29.30;67.10
33011;DHT22;19370;48.562;9.196;2022-08-06T14:22:29;29.80;68.00
33011;DHT22;19370;48.562;9.196;2022-08-06T14:24:55;30.20;65.10
33011;DHT22;19370;48.562;9.196;2022-08-06T14:27:21;30.10;64.10
33011;DHT22;19370;48.562;9.196;2022-08-06T14:29:47;30.10;63.80
33011;DHT22;19370;48.562;9.196;2022-08-06T14:32:12;30.10;65.30
33011;DHT22;19370;48.562;9.196;2022-08-06T14:34:38;29.90;64.70
33011;DHT22;19370;48.562;9.196;2022-08-06T14:37:04;29.80;65.50
33011;DHT22;19370;48.562;9.196;2022-08-06T14:39:30;29.20;65.60
33011;DHT22;19370;48.562;9.196;2022-08-06T14:41:56;28.70;65.10
33011;DHT22;19370;48.562;9.196;2022-08-06T14:44:40;28.40;66.20
33011;DHT22;19370;48.562;9.196;2022-08-06T14:47:23;28.10;67.60
33011;DHT22;19370;48.562;9.196;2022-08-06T14:49:49;27.50;69.80
33011;DHT22;19370;48.562;9.196;2022-08-06T14:52:15;27.30;71.60
33011;DHT22;19370;48.562;9.196;2022-08-06T14:54:40;27.20;72.40
33011;DHT22;19370;48.562;9.196;2022-08-06T14:57:08;27.30;71.00
33011;DHT22;19370;48.562;9.196;2022-08-06T14:59:34;27.60;70.30
33011;DHT22;19370;48.562;9.196;2022-08-06T15:02:00;28.30;68.50
33011;DHT22;19370;48.562;9.196;2022-08-06T15:04:26;28.90;68.30
33011;DHT22;19370;48.562;9.196;2022-08-06T15:06:52;29.00;64.50
33011;DHT22;19370;48.562;9.196;2022-08-06T15:09:19;28.90;64.80
33011;DHT22;19370;48.562;9.196;2022-08-06T15:11:45;29.00;63.80
33011;DHT22;19370;48.562;9.196;2022-08-06T15:14:11;29.50;63.60
33011;DHT22;19370;48.562;9.196;2022-08-06T15:16:37;29.50;60.50
33011;DHT22;19370;48.562;9.196;2022-08-06T15:19:03;29.20;61.10
33011;DHT22;19370;48.562;9.196;2022-08-06T15:21:29;29.60;58.80
33011;DHT22;19370;48.562;9.196;2022-08-06T15:23:56;30.20;58.30
33011;DHT22;19370;48.562;9.196;2022-08-06T15:26:23;30.20;56.90
33011;DHT22;19370;48.562;9.196;2022-08-06T15:28:50;30.80;56.10
33011;DHT22;19370;48.562;9.196;2022-08-06T15:31:16;31.40;54.40
33011;DHT22;19370;48.562;9.196;2022-08-06T15:33:43;31.80;54.00
33011;DHT22;19370;48.562;9.196;2022-08-06T15:36:09;31.90;49.40
33011;DHT22;19370;48.562;9.196;2022-08-06T15:38:34;32.10;48.80
33011;DHT22;19370;48.562;9.196;2022-08-06T15:41:00;32.20;49.40
33011;DHT22;19370;48.562;9.196;2022-08-06T15:43:27;32.70;47.90
33011;DHT22;19370;48.562;9.196;2022-08-06T15:45:53;32.60;47.70
33011;DHT22;19370;48.562;9.196;2022-08-06T15:50:48;32.40;48.60
33011;DHT22;19370;48.562;9.196;2022-08-06T15:53:14;31.60;50.10
33011;DHT22;19370;48.562;9.196;2022-08-06T15:55:40;30.60;52.10
33011;DHT22;19370;48.562;9.196;2022-08-06T15:58:06;30.80;53.80
33011;DHT22;19370;48.562;9.196;2022-08-06T16:00:36;31.10;53.50
33011;DHT22;19370;48.562;9.196;2022-08-06T16:03:04;30.80;52.20
33011;DHT22;19370;48.562;9.196;2022-08-06T16:05:30;30.40;53.00
33011;DHT22;19370;48.562;9.196;2022-08-06T16:07:55;30.50;53.00
33011;DHT22;19370;48.562;9.196;2022-08-06T16:10:21;30.50;52.80
33011;DHT22;19370;48.562;9.196;2022-08-06T16:12:48;29.90;53.80
33011;DHT22;19370;48.562;9.196;2022-08-06T16:15:14;29.00;54.30
33011;DHT22;19370;48.562;9.196;2022-08-06T16:17:39;28.20;55.90
33011;DHT22;19370;48.562;9.196;2022-08-06T16:20:06;27.60;58.30
33011;DHT22;19370;48.562;9.196;2022-08-06T16:22:31;27.40;59.10
33011;DHT22;19370;48.562;9.196;2022-08-06T16:24:57;27.10;59.70
33011;DHT22;19370;48.562;9.196;2022-08-06T16:27:23;26.80;59.10
33011;DHT22;19370;48.562;9.196;2022-08-06T16:29:48;27.50;59.40
33011;DHT22;19370;48.562;9.196;2022-08-06T16:32:15;28.80;57.20
33011;DHT22;19370;48.562;9.196;2022-08-06T16:34:41;29.70;55.00
33011;DHT22;19370;48.562;9.196;2022-08-06T16:37:07;29.70;54.90
33011;DHT22;19370;48.562;9.196;2022-08-06T16:39:33;29.20;55.40
33011;DHT22;19370;48.562;9.196;2022-08-06T16:42:00;28.80;55.80
33011;DHT22;19370;48.562;9.196;2022-08-06T16:44:26;28.40;55.50
33011;DHT22;19370;48.562;9.196;2022-08-06T16:46:53;27.90;56.00
33011;DHT22;19370;48.562;9.196;2022-08-06T16:49:18;27.60;57.60
33011;DHT22;19370;48.562;9.196;2022-08-06T16:51:45;27.30;57.10
33011;DHT22;19370;48.562;9.196;2022-08-06T16:54:12;27.20;57.20